Time;durP1;ratioP1;P1;durP2;ratioP2;P2;SDS_P1;SDS_P2;PMS_P1;PMS_P2;Temp;Humidity;BMP_temperature;BMP_pressure;BME280_temperature;BME280_humidity;BME280_pressure;Samples;Min_cycle;Max_cycle;Signal;HPM_P1;HPM_P2
2022/05/27 00:01:28;;;;;;;3.25;2.50;;;;;;;21.27;51.48;95189.63;4175505;28;20110;-55
2022/05/27 00:03:30;;;;;;;3.70;2.70;;;;;;;21.28;51.60;95190.44;4177180;28;20061;-51
2022/05/27 00:05:32;;;;;;;4.20;2.30;;;;;;;21.31;51.41;95186.50;4176641;28;20064;-54
2022/05/27 00:07:34;;;;;;;5.22;2.35;;;;;;;21.37;51.39;95191.00;4177072;28;20106;-55
2022/05/27 00:09:35;;;;;;;3.38;2.28;;;;;;;21.37;51.19;95185.66;4166651;28;20057;-48
2022/05/27 00:11:37;;;;;;;4.50;2.40;;;;;;;21.36;50.96;95192.00;4160493;28;20458;-51
2022/05/27 00:13:39;;;;;;;3.53;2.80;;;;;;;21.32;51.18;95193.50;4160609;28;20053;-54
2022/05/27 00:15:42;;;;;;;4.60;2.20;;;;;;;21.25;51.35;95197.00;4159144;28;20103;-50
2022/05/27 00:17:43;;;;;;;4.30;2.45;;;;;;;21.24;51.25;95194.56;4174025;28;20472;-55
2022/05/27 00:19:45;;;;;;;4.78;2.40;;;;;;;21.20;51.37;95194.16;4176754;28;20049;-53
2022/05/27 00:21:46;;;;;;;8.27;3.20;;;;;;;21.19;51.23;95194.38;4169670;28;20425;-53
2022/05/27 00:23:48;;;;;;;4.47;2.50;;;;;;;21.18;51.26;95190.88;4162647;28;20054;-50
2022/05/27 00:25:50;;;;;;;5.40;2.55;;;;;;;21.16;51.13;95197.47;4159903;28;20524;-50
2022/05/27 00:27:51;;;;;;;8.35;2.80;;;;;;;21.10;51.30;95190.31;4160299;28;20056;-49
2022/05/27 00:29:53;;;;;;;4.72;2.72;;;;;;;21.10;51.31;95184.97;4158905;28;20057;-52
2022/05/27 00:32:04;;;;;;;4.00;2.78;;;;;;;21.11;51.22;95186.63;4160240;28;20068;-50
2022/05/27 00:34:09;;;;;;;4.93;2.70;;;;;;;21.12;51.12;95181.06;4167996;28;20048;-50
2022/05/27 00:36:11;;;;;;;8.70;2.95;;;;;;;21.12;50.97;95177.59;4176805;28;20126;-53
2022/05/27 00:38:13;;;;;;;11.77;2.53;;;;;;;21.13;50.93;95177.38;4176397;28;20074;-50
2022/05/27 00:40:16;;;;;;;5.80;2.47;;;;;;;21.12;50.91;95181.06;4176533;28;20378;-54
2022/05/27 00:42:17;;;;;;;4.43;2.65;;;;;;;21.12;50.60;95180.25;4176197;28;20087;-51
2022/05/27 00:44:19;;;;;;;8.00;2.83;;;;;;;21.07;50.81;95181.72;4176572;28;20129;-52
2022/05/27 00:46:27;;;;;;;4.80;2.67;;;;;;;21.01;50.78;95179.09;4166143;28;20466;-50
2022/05/27 00:48:31;;;;;;;8.43;3.40;;;;;;;21.02;50.55;95176.22;4158565;28;20045;-53
2022/05/27 00:50:36;;;;;;;4.50;2.45;;;;;;;20.99;50.46;95175.81;4159614;28;20050;-52
2022/05/27 00:52:38;;;;;;;4.32;2.90;;;;;;;20.92;50.69;95175.03;4158427;28;20056;-52
2022/05/27 00:54:41;;;;;;;4.57;2.60;;;;;;;20.86;50.89;95176.69;4158013;28;20655;-53
2022/05/27 00:56:45;;;;;;;3.95;2.72;;;;;;;20.86;50.89;95176.69;4159743;28;20206;-52
2022/05/27 00:58:50;;;;;;;4.40;2.40;;;;;;;20.85;50.82;95175.88;4159657;28;20049;-52
2022/05/27 01:00:52;;;;;;;3.65;2.40;;;;;;;20.86;50.46;95172.19;4156557;28;20103;-51
2022/05/27 01:02:55;;;;;;;5.45;2.70;;;;;;;20.92;50.66;95177.69;4159486;28;20131;-52
2022/05/27 01:04:58;;;;;;;5.43;2.75;;;;;;;20.93;50.51;95176.66;4159292;28;20123;-50
2022/05/27 01:07:00;;;;;;;;;;;;;;;20.89;50.27;95170.13;4160589;28;20135;-51
2022/05/27 01:09:03;;;;;;;5.25;3.13;;;;;;;20.87;50.58;95170.34;4176415;28;20901;-54
2022/05/27 01:11:16;;;;;;;6.30;2.60;;;;;;;20.88;50.65;95173.81;4176213;28;20114;-53
2022/05/27 01:13:36;;;;;;;7.32;3.20;;;;;;;20.90;50.51;95169.09;4171899;28;20061;-54
2022/05/27 01:15:52;;;;;;;4.95;2.65;;;;;;;20.88;50.89;95168.50;4174097;28;20135;-52
2022/05/27 01:18:08;;;;;;;5.60;2.53;;;;;;;20.88;50.58;95158.66;4160052;28;20061;-54
2022/05/27 01:20:30;;;;;;;4.53;2.85;;;;;;;20.83;50.68;95161.94;4163040;28;20487;-54
2022/05/27 01:23:05;;;;;;;3.65;2.33;;;;;;;20.84;50.49;95157.44;4163222;28;20237;-50
2022/05/27 01:25:16;;;;;;;3.92;2.67;;;;;;;20.79;50.62;95160.75;4159114;28;20049;-51
2022/05/27 01:27:51;;;;;;;6.13;3.10;;;;;;;20.76;50.59;95166.50;4159443;28;20053;-51
2022/05/27 01:30:14;;;;;;;5.63;2.78;;;;;;;20.69;50.99;95159.56;4158103;28;20087;-54
2022/05/27 01:32:26;;;;;;;7.18;3.03;;;;;;;20.63;50.67;95155.91;4163179;28;20053;-54
2022/05/27 01:34:34;;;;;;;7.45;3.10;;;;;;;20.61;50.89;95152.63;4170043;28;20049;-53
2022/05/27 01:36:43;;;;;;;4.25;2.53;;;;;;;20.63;50.88;95158.56;4175945;28;20107;-52
2022/05/27 01:38:56;;;;;;;5.60;2.63;;;;;;;20.62;50.52;95155.06;4176007;28;20068;-52
2022/05/27 01:41:00;;;;;;;5.97;2.88;;;;;;;20.51;50.63;95153.03;4175522;28;20075;-50
2022/05/27 01:43:12;;;;;;;6.45;2.50;;;;;;;20.54;50.66;95154.44;4175874;28;20062;-50
2022/05/27 01:45:22;;;;;;;3.92;2.42;;;;;;;20.51;50.98;95152.22;4172860;28;20055;-50
2022/05/27 01:47:33;;;;;;;4.75;2.92;;;;;;;20.44;51.50;95153.06;4174287;28;20101;-53
2022/05/27 01:49:38;;;;;;;5.47;2.80;;;;;;;20.41;51.40;95148.16;4175613;28;20057;-52
2022/05/27 01:51:41;;;;;;;5.95;2.42;;;;;;;20.43;51.24;95147.94;4174430;28;20111;-53
2022/05/27 01:54:11;;;;;;;7.07;3.00;;;;;;;20.41;51.20;95152.66;4174436;28;20122;-54
2022/05/27 01:56:36;;;;;;;4.68;2.83;;;;;;;20.42;51.20;95144.47;4173000;28;20147;-53
2022/05/27 01:58:42;;;;;;;5.03;2.60;;;;;;;20.36;51.38;95145.28;4161332;28;20159;-52
2022/05/27 02:00:45;;;;;;;5.32;2.80;;;;;;;20.38;51.17;95151.22;4159962;28;20147;-52
2022/05/27 02:03:17;;;;;;;4.32;2.50;;;;;;;20.44;50.85;95146.94;4161132;28;20092;-50
2022/05/27 02:05:24;;;;;;;4.40;2.30;;;;;;;20.49;50.37;95149.75;4176634;28;20060;-51
2022/05/27 02:07:33;;;;;;;3.15;2.15;;;;;;;20.53;50.33;95155.50;4177524;28;20052;-53
2022/05/27 02:09:38;;;;;;;5.53;2.67;;;;;;;20.52;49.91;95148.53;4178580;28;20240;-52
2022/05/27 02:11:43;;;;;;;5.00;2.60;;;;;;;20.52;50.33;95141.38;4174667;28;20103;-50
2022/05/27 02:14:08;;;;;;;7.70;2.90;;;;;;;20.50;50.43;95147.91;4168501;28;20504;-54
2022/05/27 02:16:18;;;;;;;6.38;2.80;;;;;;;20.37;50.57;95143.44;4177064;28;20045;-53
2022/05/27 02:18:44;;;;;;;3.75;2.58;;;;;;;20.23;51.11;95146.16;4177411;28;20060;-51
2022/05/27 02:20:54;;;;;;;5.70;2.95;;;;;;;20.16;51.16;95141.88;4162312;28;20112;-53
2022/05/27 02:23:11;;;;;;;10.68;2.72;;;;;;;20.03;51.47;95146.19;4164053;28;20123;-48
2022/05/27 02:25:21;;;;;;;4.40;2.40;;;;;;;19.91;51.78;95144.34;4173119;28;20087;-50
2022/05/27 02:27:27;;;;;;;6.90;3.00;;;;;;;19.59;52.42;95155.56;4177335;28;20053;-54
2022/05/27 02:29:30;;;;;;;5.45;2.83;;;;;;;19.59;52.43;95160.88;4176657;28;20072;-53
2022/05/27 02:31:35;;;;;;;5.53;2.60;;;;;;;19.65;52.59;95152.09;4176729;28;20498;-49
2022/05/27 02:36:07;;;;;;;4.53;2.50;;;;;;;19.95;51.99;95146.41;4177403;28;20254;-51
2022/05/27 02:38:09;;;;;;;4.28;2.83;;;;;;;20.10;51.71;95161.31;4177153;28;20130;-52
2022/05/27 02:41:07;;;;;;;4.80;2.72;;;;;;;20.23;51.19;95150.66;4176688;28;20144;-54
2022/05/27 02:43:13;;;;;;;7.38;2.80;;;;;;;20.13;51.36;95161.72;4176005;28;20056;-51
2022/05/27 02:45:41;;;;;;;7.32;2.72;;;;;;;19.92;52.28;95154.81;4157766;28;20046;-52
2022/05/27 02:48:13;;;;;;;8.85;3.70;;;;;;;19.74;53.00;95146.63;4170503;28;20045;-51
2022/05/27 02:50:49;;;;;;;6.82;3.05;;;;;;;19.70;53.35;95153.38;4161802;28;20050;-53
2022/05/27 02:53:03;;;;;;;6.05;3.03;;;;;;;19.70;53.61;95156.84;4161294;28;20071;-51
2022/05/27 02:55:24;;;;;;;12.90;3.70;;;;;;;19.74;53.44;95154.59;4161481;28;20460;-54
2022/05/27 02:57:36;;;;;;;7.72;3.55;;;;;;;19.69;53.85;95157.03;4160261;28;20108;-57
2022/05/27 02:59:38;;;;;;;7.45;3.47;;;;;;;19.57;54.14;95160.28;4158833;28;20677;-54
2022/05/27 03:01:39;;;;;;;6.13;3.33;;;;;;;19.48;54.22;95152.72;4160736;28;20061;-55
2022/05/27 03:03:41;;;;;;;5.68;3.22;;;;;;;19.54;54.11;95152.72;4161336;28;20187;-52
2022/05/27 03:06:00;;;;;;;6.60;3.40;;;;;;;19.57;54.08;95154.94;4161407;28;20080;-50
2022/05/27 03:08:22;;;;;;;9.10;3.03;;;;;;;19.58;54.09;95161.91;4171978;28;20064;-51
2022/05/27 03:11:02;;;;;;;11.07;3.60;;;;;;;19.57;54.29;95160.28;4176433;28;20129;-50
2022/05/27 03:13:22;;;;;;;8.95;3.80;;;;;;;19.63;54.25;95162.13;4178194;28;20148;-50
2022/05/27 03:15:36;;;;;;;7.72;3.83;;;;;;;19.79;53.91;95170.75;4176013;28;20185;-52
2022/05/27 03:18:15;;;;;;;7.97;3.50;;;;;;;19.89;53.67;95159.69;4178156;28;20119;-51
2022/05/27 03:20:22;;;;;;;5.28;3.72;;;;;;;19.99;53.55;95166.25;4163897;28;20460;-52
2022/05/27 03:22:54;;;;;;;6.28;3.25;;;;;;;20.10;52.89;95163.97;4161535;28;20540;-49
2022/05/27 03:25:06;;;;;;;7.97;3.97;;;;;;;20.17;52.72;95160.28;4166241;28;20052;-54
2022/05/27 03:27:20;;;;;;;13.50;4.30;;;;;;;20.25;52.89;95164.56;4175438;28;20140;-52
2022/05/27 03:29:27;;;;;;;9.25;4.47;;;;;;;20.35;52.66;95164.97;4176113;28;20115;-53
2022/05/27 03:32:00;;;;;;;6.15;4.03;;;;;;;20.46;52.29;95160.84;4176823;28;20115;-54
2022/05/27 03:34:07;;;;;;;7.03;3.63;;;;;;;20.53;52.26;95166.94;4177669;28;20053;-50
2022/05/27 03:36:30;;;;;;;5.50;4.32;;;;;;;20.59;52.29;95155.50;4177471;28;20049;-50
2022/05/27 03:38:37;;;;;;;9.88;3.60;;;;;;;20.67;52.11;95162.41;4176286;28;20438;-51
2022/05/27 03:41:21;;;;;;;10.48;3.50;;;;;;;20.68;51.71;95161.41;4177032;28;20107;-53
2022/05/27 03:43:23;;;;;;;12.50;4.70;;;;;;;20.41;52.63;95164.13;4177213;28;20053;-52
2022/05/27 03:45:25;;;;;;;10.68;4.05;;;;;;;20.10;53.44;95162.13;4174726;28;20585;-52
2022/05/27 03:47:27;;;;;;;8.20;3.72;;;;;;;19.86;53.98;95165.44;4177393;28;20068;-50
2022/05/27 03:49:29;;;;;;;11.40;3.80;;;;;;;19.80;54.32;95162.56;4175719;28;20107;-53
2022/05/27 03:51:43;;;;;;;10.93;3.92;;;;;;;19.86;54.44;95166.25;4177615;28;20413;-54
2022/05/27 03:56:07;;;;;;;8.27;4.20;;;;;;;19.96;53.80;95158.69;4177007;28;20383;-54
2022/05/27 03:58:09;;;;;;;8.57;4.15;;;;;;;20.02;53.85;95162.34;4166718;28;20053;-52
2022/05/27 04:00:13;;;;;;;7.68;4.45;;;;;;;20.08;53.93;95158.88;4159572;28;20653;-51
2022/05/27 04:02:15;;;;;;;8.02;4.00;;;;;;;20.02;54.04;95155.19;4162805;28;20537;-49
2022/05/27 04:04:20;;;;;;;12.18;4.72;;;;;;;20.01;54.45;95152.75;4160569;28;20057;-49
2022/05/27 04:06:22;;;;;;;9.23;4.57;;;;;;;20.00;54.23;95159.06;4160947;28;20156;-51
2022/05/27 04:08:23;;;;;;;10.93;4.20;;;;;;;19.97;53.78;95165.63;4160523;28;20046;-55
2022/05/27 04:10:25;;;;;;;8.32;3.78;;;;;;;19.95;54.21;95167.66;4171148;28;20142;-53
2022/05/27 04:12:27;;;;;;;6.43;3.75;;;;;;;19.88;54.35;95169.53;4176788;28;20470;-55
2022/05/27 04:14:28;;;;;;;11.63;3.95;;;;;;;19.69;54.66;95162.34;4176600;28;20600;-53
2022/05/27 04:16:30;;;;;;;11.75;4.32;;;;;;;19.55;54.58;95169.47;4175848;28;20071;-51
2022/05/27 04:18:32;;;;;;;9.27;3.83;;;;;;;19.47;54.35;95164.34;4176458;28;20105;-51
2022/05/27 04:20:33;;;;;;;9.95;3.63;;;;;;;19.17;54.91;95167.38;4176797;28;20056;-52
2022/05/27 04:22:36;;;;;;;7.57;3.90;;;;;;;19.21;54.98;95168.63;4176808;28;20508;-51
2022/05/27 04:24:44;;;;;;;9.25;3.88;;;;;;;19.37;54.70;95162.09;4173345;28;20133;-52
2022/05/27 04:26:46;;;;;;;10.65;4.30;;;;;;;19.40;54.85;95167.00;4165615;28;20106;-53
2022/05/27 04:28:47;;;;;;;9.68;4.55;;;;;;;19.54;55.43;95170.50;4160546;28;20053;-52
2022/05/27 04:30:49;;;;;;;7.82;3.70;;;;;;;19.59;55.76;95166.19;4158791;28;20126;-55
2022/05/27 04:32:51;;;;;;;9.13;4.32;;;;;;;19.68;56.08;95166.84;4160266;28;20109;-54
2022/05/27 04:34:53;;;;;;;12.60;4.18;;;;;;;19.74;55.63;95168.69;4160335;28;20119;-53
2022/05/27 04:36:56;;;;;;;6.30;4.50;;;;;;;19.74;55.48;95167.88;4160310;28;20041;-53
2022/05/27 04:38:57;;;;;;;7.05;4.78;;;;;;;19.65;55.47;95169.91;4160185;28;20145;-54
2022/05/27 04:40:59;;;;;;;11.45;4.68;;;;;;;19.59;56.17;95166.19;4166089;28;20132;-54
2022/05/27 04:43:03;;;;;;;12.77;4.25;;;;;;;19.78;55.69;95164.59;4175065;28;20091;-55
2022/05/27 04:45:06;;;;;;;13.07;4.15;;;;;;;20.02;55.13;95159.69;4175020;28;20095;-52
2022/05/27 04:47:08;;;;;;;11.77;4.22;;;;;;;20.24;54.48;95166.41;4160884;28;20129;-53
2022/05/27 04:51:35;;;;;;;8.02;4.60;;;;;;;20.61;53.39;95163.28;4160226;28;20454;-56
2022/05/27 04:53:37;;;;;;;6.22;4.63;;;;;;;20.61;52.97;95163.28;4159785;28;20050;-50
2022/05/27 04:55:39;;;;;;;11.27;4.32;;;;;;;20.70;53.03;95167.34;4159378;28;20064;-51
2022/05/27 04:57:49;;;;;;;7.20;4.60;;;;;;;20.68;53.08;95165.91;4158350;28;20100;-52
2022/05/27 04:59:51;;;;;;;9.48;4.90;;;;;;;20.46;53.76;95161.66;4156893;28;20587;-52
2022/05/27 05:01:53;;;;;;;6.53;3.70;;;;;;;20.54;53.64;95165.09;4159705;28;20061;-50
2022/05/27 05:03:54;;;;;;;15.07;4.72;;;;;;;20.66;53.24;95155.47;4159671;28;20053;-52
2022/05/27 05:05:56;;;;;;;7.88;4.13;;;;;;;20.79;52.70;95155.41;4159644;28;20422;-52
2022/05/27 05:08:13;;;;;;;8.55;4.03;;;;;;;20.92;52.00;95154.53;4159774;28;20147;-53
2022/05/27 05:10:18;;;;;;;11.65;4.82;;;;;;;21.05;51.68;95153.66;4157757;28;20104;-50
2022/05/27 05:12:22;;;;;;;11.55;4.40;;;;;;;21.02;51.40;95152.25;4159715;28;20057;-51
2022/05/27 05:14:24;;;;;;;13.60;4.28;;;;;;;20.81;52.20;95152.56;4159756;28;20058;-53
2022/05/27 05:16:26;;;;;;;13.43;4.63;;;;;;;20.48;52.77;95153.47;4158427;28;20049;-51
2022/05/27 05:18:28;;;;;;;7.80;3.50;;;;;;;20.41;53.43;95156.16;4158254;28;20149;-56
2022/05/27 05:20:30;;;;;;;8.38;4.55;;;;;;;20.30;53.54;95154.09;4159283;28;20057;-55
2022/05/27 05:22:32;;;;;;;7.05;3.67;;;;;;;20.41;53.24;95163.28;4159645;28;20166;-50
2022/05/27 05:24:34;;;;;;;9.63;4.20;;;;;;;20.18;53.72;95158.44;4158845;28;20134;-52
2022/05/27 05:26:36;;;;;;;9.90;4.05;;;;;;;20.01;54.43;95158.88;4163932;28;20137;-54
2022/05/27 05:28:38;;;;;;;11.68;4.47;;;;;;;20.00;55.03;95159.91;4158848;28;20049;-50
2022/05/27 05:30:39;;;;;;;6.70;3.60;;;;;;;20.10;54.51;95156.81;4157810;28;20049;-50
2022/05/27 05:32:41;;;;;;;11.50;4.45;;;;;;;20.34;53.67;95160.66;4159539;28;20207;-52
2022/05/27 05:34:43;;;;;;;7.82;3.75;;;;;;;20.36;53.24;95155.94;4159264;28;20049;-54
2022/05/27 05:36:44;;;;;;;7.53;4.43;;;;;;;20.55;53.20;95156.91;4159212;28;20065;-52
2022/05/27 05:38:46;;;;;;;10.52;4.43;;;;;;;20.26;54.67;95158.22;4159259;28;20093;-53
2022/05/27 05:40:48;;;;;;;6.72;3.90;;;;;;;20.37;53.94;95156.75;4163609;28;20045;-55
2022/05/27 05:42:50;;;;;;;17.23;4.70;;;;;;;20.51;54.19;95153.03;4175768;28;20094;-49
2022/05/27 05:44:51;;;;;;;11.18;3.90;;;;;;;20.77;53.78;95156.66;4172899;28;20146;-49
2022/05/27 05:46:54;;;;;;;28.92;5.25;;;;;;;20.95;53.82;95158.63;4175510;28;20045;-50
2022/05/27 05:48:55;;;;;;;9.85;4.05;;;;;;;21.04;53.29;95158.19;4175626;28;20060;-52
2022/05/27 05:50:57;;;;;;;7.43;3.65;;;;;;;21.00;52.62;95156.16;4175388;28;20052;-54
2022/05/27 05:52:59;;;;;;;10.82;3.72;;;;;;;21.01;52.72;95160.44;4175617;28;20106;-52
2022/05/27 05:55:03;;;;;;;7.22;3.40;;;;;;;20.94;52.66;95154.34;4175192;28;20091;-59
2022/05/27 05:57:05;;;;;;;;;;;;;;;21.01;52.62;95157.78;4174716;28;20049;-53
2022/05/27 05:59:07;;;;;;;15.38;4.25;;;;;;;20.94;53.11;95165.00;4159006;28;19965;-54
2022/05/27 06:01:09;;;;;;;4.38;3.00;;;;;;;20.86;52.72;95166.03;4157630;28;20152;-53
2022/05/27 06:03:11;;;;;;;9.90;3.65;;;;;;;20.82;52.87;95160.34;4159049;28;20061;-54
2022/05/27 06:05:13;;;;;;;5.63;3.13;;;;;;;20.67;52.76;95157.09;4158690;28;20061;-50
2022/05/27 06:07:15;;;;;;;7.20;3.55;;;;;;;20.63;52.09;95162.03;4159060;28;20060;-49
2022/05/27 06:09:18;;;;;;;8.25;3.17;;;;;;;20.48;51.79;95168.59;4158814;28;20049;-52
2022/05/27 06:11:21;;;;;;;6.63;2.45;;;;;;;20.63;52.34;95161.22;4160764;28;20052;-51
2022/05/27 06:13:23;;;;;;;5.07;2.67;;;;;;;20.51;52.17;95165.53;4159148;28;20502;-52
2022/05/27 06:15:25;;;;;;;5.32;3.20;;;;;;;20.55;52.12;95164.91;4157458;28;20155;-52
2022/05/27 06:17:27;;;;;;;7.00;3.03;;;;;;;20.38;53.02;95161.88;4159063;28;20058;-51
2022/05/27 06:19:28;;;;;;;4.45;2.75;;;;;;;20.49;52.77;95156.94;4159145;28;20123;-47
2022/05/27 06:21:30;;;;;;;9.57;3.40;;;;;;;20.41;53.06;95153.50;4159094;28;20110;-52
2022/05/27 06:23:32;;;;;;;5.85;2.65;;;;;;;20.69;52.70;95151.56;4159019;28;20061;-50
2022/05/27 06:25:34;;;;;;;11.52;3.30;;;;;;;20.86;52.72;95152.72;4159175;28;20054;-52
2022/05/27 06:27:35;;;;;;;14.93;3.20;;;;;;;21.00;51.73;95156.97;4157863;28;20058;-49
2022/05/27 06:34:23;;;;;;;8.80;2.95;;;;;;;20.77;52.36;95160.13;4159244;28;20152;-52
2022/05/27 06:36:25;;;;;;;6.30;3.05;;;;;;;20.86;52.23;95161.56;4157683;28;20045;-51
2022/05/27 06:38:27;;;;;;;8.90;3.67;;;;;;;21.03;52.26;95159.19;4158928;28;20057;-49
2022/05/27 06:40:29;;;;;;;5.05;3.10;;;;;;;21.13;51.77;95156.09;4161720;28;20556;-51
2022/05/27 06:42:31;;;;;;;8.05;3.20;;;;;;;21.29;51.55;95157.41;4178515;28;20053;-51
2022/05/27 06:44:40;;;;;;;10.80;3.38;;;;;;;21.34;50.63;95152.28;4177378;28;20051;-50
2022/05/27 06:46:42;;;;;;;5.00;2.70;;;;;;;21.36;50.25;95149.38;4166199;28;20045;-49
2022/05/27 06:48:44;;;;;;;7.40;2.95;;;;;;;21.50;49.73;95142.97;4162081;28;20057;-54
2022/05/27 06:50:46;;;;;;;4.88;2.97;;;;;;;21.83;49.48;95140.03;4161601;28;20057;-50
2022/05/27 06:52:50;;;;;;;6.35;3.15;;;;;;;21.97;48.93;95138.06;4161865;28;20191;-54
2022/05/27 06:54:52;;;;;;;12.70;3.78;;;;;;;22.08;48.57;95136.53;4161231;28;20442;-50
2022/05/27 06:56:55;;;;;;;5.93;3.13;;;;;;;22.31;48.70;95135.94;4161644;28;20145;-49
2022/05/27 06:58:56;;;;;;;7.55;3.28;;;;;;;22.42;48.34;95139.72;4161933;28;20053;-51
2022/05/27 07:00:58;;;;;;;6.22;3.38;;;;;;;21.96;47.59;95144.44;4160048;28;20466;-50
2022/05/27 07:03:01;;;;;;;7.65;2.60;;;;;;;22.07;48.40;95141.06;4161650;28;20057;-51
2022/05/27 07:05:03;;;;;;;6.07;2.80;;;;;;;22.09;48.17;95135.47;4161648;28;20053;-53
2022/05/27 07:07:05;;;;;;;6.20;3.13;;;;;;;22.35;48.26;95139.78;4161724;28;20061;-53
2022/05/27 07:09:08;;;;;;;8.50;3.28;;;;;;;22.49;47.48;95130.56;4160376;28;20053;-50
2022/05/27 07:11:10;;;;;;;12.98;3.22;;;;;;;22.70;47.80;95131.16;4161171;28;20068;-53
2022/05/27 07:13:13;;;;;;;7.28;3.33;;;;;;;22.84;47.01;95121.97;4161555;28;20157;-50
2022/05/27 07:15:16;;;;;;;7.03;3.53;;;;;;;22.85;46.57;95120.91;4159926;28;20053;-50
2022/05/27 07:17:17;;;;;;;6.20;3.42;;;;;;;22.66;46.49;95124.66;4161121;28;20190;-52
2022/05/27 07:19:20;;;;;;;6.10;3.03;;;;;;;22.60;46.36;95115.66;4167255;28;20048;-53
2022/05/27 07:21:22;;;;;;;7.18;3.50;;;;;;;22.84;46.40;95107.78;4177863;28;20114;-51
2022/05/27 07:23:23;;;;;;;12.75;5.03;;;;;;;23.05;45.83;95104.63;4178066;28;20152;-56
2022/05/27 07:25:25;;;;;;;8.75;4.85;;;;;;;23.29;45.70;95100.16;4177593;28;20194;-52
2022/05/27 07:27:27;;;;;;;18.00;6.43;;;;;;;23.37;44.45;95101.72;4176471;28;20523;-55
2022/05/27 07:29:29;;;;;;;9.32;3.47;;;;;;;23.22;43.48;95107.47;4164298;28;20056;-54
2022/05/27 07:31:31;;;;;;;7.35;2.80;;;;;;;23.18;43.68;95105.50;4160608;28;20239;-55
2022/05/27 07:33:33;;;;;;;8.68;2.83;;;;;;;23.41;44.45;95102.88;4168534;28;20890;-52
2022/05/27 07:35:34;;;;;;;18.77;3.00;;;;;;;23.70;44.19;95093.19;4177952;28;20130;-54
2022/05/27 07:37:38;;;;;;;7.18;3.20;;;;;;;23.97;43.71;95089.25;4177177;28;20491;-54
2022/05/27 07:39:39;;;;;;;6.70;2.75;;;;;;;24.19;43.55;95092.16;4169153;28;20053;-55
2022/05/27 07:41:41;;;;;;;7.53;3.00;;;;;;;24.35;42.94;95087.94;4173095;28;20151;-53
2022/05/27 07:43:44;;;;;;;5.90;2.90;;;;;;;24.46;42.88;95087.09;4177543;28;20049;-53
2022/05/27 07:45:46;;;;;;;5.57;3.28;;;;;;;24.68;42.11;95079.28;4176256;28;20163;-57
2022/05/27 07:47:48;;;;;;;8.32;3.15;;;;;;;24.87;41.92;95080.72;4177256;28;20132;-54
2022/05/27 07:49:50;;;;;;;9.75;5.45;;;;;;;24.82;41.63;95085.97;4177333;28;20573;-56
2022/05/27 07:51:51;;;;;;;9.85;3.40;;;;;;;24.51;42.20;95082.69;4176567;28;20057;-54
2022/05/27 07:53:53;;;;;;;6.55;3.25;;;;;;;24.39;42.58;95075.69;4177272;28;20057;-55
2022/05/27 07:55:55;;;;;;;7.95;3.38;;;;;;;24.57;42.50;95080.13;4177238;28;20049;-54
2022/05/27 07:57:57;;;;;;;12.18;3.65;;;;;;;24.56;42.84;95083.84;4167491;28;20042;-55
2022/05/27 08:00:07;;;;;;;7.07;3.10;;;;;;;24.19;43.33;95081.44;4166178;28;20622;-56
2022/05/27 08:02:09;;;;;;;7.90;3.67;;;;;;;24.04;43.86;95077.38;4161022;28;20425;-54
2022/05/27 08:04:11;;;;;;;10.02;4.05;;;;;;;24.23;43.69;95071.91;4162859;28;20076;-53
2022/05/27 08:06:14;;;;;;;6.07;3.55;;;;;;;24.35;43.01;95075.38;4160776;28;20611;-55
2022/05/27 08:08:18;;;;;;;8.48;4.85;;;;;;;24.20;43.56;95072.34;4160502;28;20335;-57
2022/05/27 08:10:22;;;;;;;5.60;3.13;;;;;;;24.21;43.17;95079.34;4158995;28;20117;-56
2022/05/27 08:12:23;;;;;;;8.50;3.70;;;;;;;24.24;43.28;95065.47;4160899;28;20053;-58
2022/05/27 08:14:25;;;;;;;5.70;3.25;;;;;;;24.33;43.70;95066.75;4160435;28;20115;-56
2022/05/27 08:16:32;;;;;;;8.93;3.63;;;;;;;24.23;43.57;95066.53;4163331;28;20267;-52
2022/05/27 08:18:35;;;;;;;7.30;3.22;;;;;;;24.48;43.53;95064.41;4176481;28;20076;-55
2022/05/27 08:20:43;;;;;;;6.13;3.42;;;;;;;24.70;43.43;95066.47;4159351;28;20100;-57
2022/05/27 08:22:48;;;;;;;8.85;3.25;;;;;;;24.82;43.18;95061.03;4160641;28;20049;-54
2022/05/27 08:24:50;;;;;;;6.07;3.08;;;;;;;25.00;42.64;95066.22;4158496;28;20069;-54
2022/05/27 08:26:51;;;;;;;9.75;4.90;;;;;;;25.00;42.47;95065.41;4160650;28;20061;-56
2022/05/27 08:28:53;;;;;;;12.00;4.20;;;;;;;24.92;42.59;95055.88;4159739;28;20106;-49
2022/05/27 08:30:55;;;;;;;9.50;3.85;;;;;;;25.05;42.59;95057.44;4161341;28;20072;-54
2022/05/27 08:32:58;;;;;;;10.20;3.90;;;;;;;25.26;42.89;95051.41;4160161;28;20053;-54
2022/05/27 08:39:46;;;;;;;7.97;3.70;;;;;;;25.73;41.31;95053.78;4158709;28;20477;-51
2022/05/27 08:42:25;;;;;;;7.15;3.20;;;;;;;25.41;41.41;95045.50;4171524;28;20085;-53
2022/05/27 08:44:33;;;;;;;5.20;3.50;;;;;;;25.19;41.42;95042.69;4176201;28;20060;-56
2022/05/27 08:46:47;;;;;;;10.70;3.90;;;;;;;25.18;41.60;95040.25;4165441;28;20061;-53
2022/05/27 08:48:51;;;;;;;11.45;3.28;;;;;;;25.33;41.20;95037.84;4159947;28;20470;-55
2022/05/27 08:51:16;;;;;;;6.38;3.33;;;;;;;25.16;41.97;95035.13;4160210;28;20049;-53
2022/05/27 08:53:29;;;;;;;4.88;3.20;;;;;;;25.24;41.63;95036.63;4159775;28;20084;-54
2022/05/27 09:00:29;;;;;;;9.75;3.15;;;;;;;25.14;42.00;95026.50;4158225;28;20306;-54
2022/05/27 09:02:45;;;;;;;10.57;3.50;;;;;;;25.43;41.27;95031.84;4160008;28;20494;-53
2022/05/27 09:04:52;;;;;;;5.05;3.30;;;;;;;25.56;41.42;95026.16;4159497;28;20175;-53
2022/05/27 09:07:02;;;;;;;6.75;3.30;;;;;;;25.72;41.53;95025.31;4160034;28;20092;-52
2022/05/27 09:09:06;;;;;;;8.68;3.50;;;;;;;26.02;41.31;95020.66;4159910;28;20115;-55
2022/05/27 09:11:40;;;;;;;7.65;3.65;;;;;;;26.00;40.12;95026.28;4158094;28;20092;-54
2022/05/27 09:13:52;;;;;;;7.30;3.20;;;;;;;26.13;40.05;95019.72;4171006;28;20053;-56
2022/05/27 09:16:01;;;;;;;15.18;4.75;;;;;;;26.32;40.20;95020.25;4173235;28;20044;-55
2022/05/27 09:18:27;;;;;;;12.30;4.82;;;;;;;26.40;39.88;95019.00;4176224;28;20136;-54
2022/05/27 09:20:49;;;;;;;8.32;3.60;;;;;;;26.34;39.87;95021.59;4158938;28;20182;-56
2022/05/27 09:23:14;;;;;;;7.97;4.47;;;;;;;26.31;39.94;95019.44;4159478;28;20061;-59
2022/05/27 09:26:20;;;;;;;10.05;3.35;;;;;;;26.14;39.56;95024.84;4159226;28;20053;-52
2022/05/27 09:28:29;;;;;;;;;;;;;;;26.02;40.38;95008.03;4190721;28;20091;-55
2022/05/27 09:30:35;;;;;;;8.20;3.08;;;;;;;26.24;40.10;95007.25;4167855;28;20286;-55
2022/05/27 09:32:46;;;;;;;8.30;3.58;;;;;;;26.35;40.33;95003.66;4172651;28;20129;-54
2022/05/27 09:34:48;;;;;;;8.75;3.42;;;;;;;26.39;39.86;94998.56;4190139;28;20519;-54
2022/05/27 09:36:53;;;;;;;8.73;3.72;;;;;;;26.50;39.60;95001.13;4173422;28;20401;-54
2022/05/27 09:38:59;;;;;;;18.65;7.78;;;;;;;26.50;39.70;94992.25;4189983;28;20254;-54
2022/05/27 09:41:53;;;;;;;9.55;3.55;;;;;;;26.51;39.75;94989.31;4189635;28;20045;-53
2022/05/27 09:44:30;;;;;;;7.30;3.40;;;;;;;26.77;39.97;94984.25;4165810;28;20056;-55
2022/05/27 09:46:32;;;;;;;9.30;3.72;;;;;;;26.74;39.07;94985.56;4139766;28;20062;-54
2022/05/27 09:48:34;;;;;;;6.97;3.65;;;;;;;26.52;39.90;94974.00;4168536;28;20147;-55
2022/05/27 09:50:43;;;;;;;12.20;3.67;;;;;;;26.53;39.36;94973.75;4189903;28;20059;-53
2022/05/27 09:52:45;;;;;;;8.43;3.30;;;;;;;26.80;39.28;94970.28;4173260;28;20391;-52
2022/05/27 09:54:52;;;;;;;10.55;3.88;;;;;;;27.05;39.65;94971.59;4173072;28;20098;-50
2022/05/27 09:57:04;;;;;;;4.80;3.10;;;;;;;27.20;38.92;94968.22;4173720;28;20075;-52
2022/05/27 09:59:34;;;;;;;7.25;3.25;;;;;;;27.38;38.01;94970.53;4168719;28;20057;-53
2022/05/27 10:01:38;;;;;;;7.32;3.25;;;;;;;27.35;38.19;94968.38;4157839;28;20334;-53
2022/05/27 10:03:40;;;;;;;6.07;3.38;;;;;;;27.32;38.85;94968.91;4159918;28;20132;-52
2022/05/27 10:05:50;;;;;;;6.65;3.00;;;;;;;27.44;38.02;94953.38;4159283;28;20053;-51
2022/05/27 10:07:57;;;;;;;7.25;3.33;;;;;;;27.52;37.53;94952.06;4159404;28;20057;-52
2022/05/27 10:10:19;;;;;;;9.75;3.40;;;;;;;27.69;37.84;94958.09;4159071;28;20050;-50
2022/05/27 10:12:29;;;;;;;10.95;3.10;;;;;;;27.85;37.33;94945.56;4159207;28;20402;-56
2022/05/27 10:14:37;;;;;;;8.70;3.40;;;;;;;28.02;36.88;94942.69;4158175;28;20111;-54
2022/05/27 10:16:44;;;;;;;8.93;3.10;;;;;;;28.19;36.58;94945.19;4161670;28;20123;-55
2022/05/27 10:18:46;;;;;;;13.00;3.25;;;;;;;28.18;36.68;94943.56;4162480;28;20159;-55
2022/05/27 10:20:57;;;;;;;6.13;2.50;;;;;;;28.13;36.36;94938.16;4162674;28;20053;-55